createdAt,value
2018-04-07T17:16:17.114Z,97116.85
2018-04-07T17:18:44.568Z,97110.22
2018-04-07T17:21:12.138Z,97115.62
2018-04-07T17:23:39.598Z,97122.45
2018-04-07T17:26:07.093Z,97120.28
2018-04-07T17:28:34.603Z,97119.59
2018-04-07T17:31:02.068Z,97119.95
2018-04-07T17:33:29.789Z,97114.59
2018-04-07T17:35:57.240Z,97115.70
2018-04-07T17:38:24.724Z,97106.52
2018-04-07T17:40:52.168Z,97109.83
2018-04-07T17:43:19.691Z,97106.98
2018-04-07T17:45:47.125Z,97111.42
2018-04-07T17:48:14.590Z,97116.73
2018-04-07T17:50:42.043Z,97114.97
2018-04-07T17:53:09.585Z,97117.31
2018-04-07T17:55:37.089Z,97117.91
2018-04-07T17:58:04.534Z,97121.53
2018-04-07T18:00:31.989Z,97122.19
2018-04-07T18:02:59.448Z,97119.87
2018-04-07T18:05:27.736Z,97127.89
2018-04-07T18:07:55.971Z,97124.55
2018-04-07T18:10:23.429Z,97128.47
2018-04-07T18:12:50.951Z,97129.20
2018-04-07T18:15:18.392Z,97130.37
2018-04-07T18:17:45.867Z,97132.66
2018-04-07T18:20:13.457Z,97129.75
2018-04-07T18:22:40.940Z,97126.98
2018-04-07T18:25:08.429Z,97133.75
2018-04-07T18:27:35.874Z,97131.97
2018-04-07T18:30:03.443Z,97139.98
2018-04-07T18:32:31.270Z,97132.33
2018-04-07T18:34:58.746Z,97137.20
2018-04-07T18:37:26.799Z,97139.39
2018-04-07T18:39:55.783Z,97142.64
2018-04-07T18:42:25.620Z,97139.64
2018-04-07T18:44:58.936Z,97143.53
2018-04-07T18:47:27.357Z,97148.33
2018-04-07T18:49:56.779Z,97156.48
2018-04-07T18:52:26.474Z,97145.98
2018-04-07T18:55:00.379Z,97156.55
2018-04-07T18:57:29.721Z,97159.97
2018-04-07T18:59:58.601Z,97166.23
2018-04-07T19:02:26.848Z,97167.86
2018-04-07T19:04:56.398Z,97170.70
2018-04-07T19:07:26.588Z,97176.80
2018-04-07T19:09:57.073Z,97177.31
2018-04-07T19:12:26.514Z,97181.20
2018-04-07T19:14:54.996Z,97179.00
2018-04-07T19:17:24.201Z,97180.97
2018-04-07T19:19:52.496Z,97184.62
2018-04-07T19:22:22.690Z,97192.28
2018-04-07T19:24:52.264Z,97193.31
2018-04-07T19:27:24.004Z,97192.13
2018-04-07T19:29:53.107Z,97189.56
2018-04-07T19:32:22.162Z,97187.63
2018-04-07T19:34:51.908Z,97189.61
2018-04-07T19:37:21.004Z,97195.23
2018-04-07T19:39:50.312Z,97200.59
2018-04-07T19:42:19.422Z,97197.66
2018-04-07T19:44:49.274Z,97198.17
2018-04-07T19:47:19.073Z,97194.53
2018-04-07T19:49:48.471Z,97193.09
2018-04-07T19:52:15.957Z,97199.44
2018-04-07T19:54:45.427Z,97199.52
2018-04-07T19:57:15.470Z,97197.44
2018-04-07T19:59:48.990Z,97200.78
2018-04-07T20:02:19.675Z,97198.36
2018-04-07T20:04:50.274Z,97200.11
2018-04-07T20:07:20.197Z,97200.84
2018-04-07T20:09:54.529Z,97203.75
2018-04-07T20:12:23.417Z,97202.53
2018-04-07T20:14:53.059Z,97197.30
2018-04-07T20:17:27.524Z,97200.36
2018-04-07T20:19:57.838Z,97194.67
2018-04-07T20:22:28.212Z,97199.39
2018-04-07T20:24:57.158Z,97193.95
2018-04-07T20:27:27.606Z,97193.22
2018-04-07T20:29:56.794Z,97189.05
2018-04-07T20:32:26.005Z,97182.59
2018-04-07T20:34:55.603Z,97196.13
2018-04-07T20:37:26.378Z,97198.05
2018-04-07T20:39:55.744Z,97205.91
2018-04-07T20:42:30.416Z,97197.42
2018-04-07T20:44:59.468Z,97196.06
2018-04-07T20:47:28.886Z,97195.55
2018-04-07T20:49:58.535Z,97197.45
2018-04-07T20:52:27.883Z,97192.59
2018-04-07T20:54:57.399Z,97193.04
2018-04-07T20:57:26.613Z,97186.48
2018-04-07T20:59:55.760Z,97194.30
2018-04-07T21:02:24.940Z,97192.04
2018-04-07T21:04:54.436Z,97186.02
2018-04-07T21:07:23.781Z,97189.31
2018-04-07T21:09:51.238Z,97188.84
2018-04-07T21:12:20.735Z,97187.14
2018-04-07T21:14:50.748Z,97188.69
2018-04-07T21:17:20.316Z,97189.69
2018-04-07T21:19:47.865Z,97188.42
2018-04-07T21:22:15.338Z,97190.51
2018-04-07T21:24:42.791Z,97193.45
2018-04-07T21:27:10.281Z,97186.72
2018-04-07T21:29:37.952Z,97184.05
2018-04-07T21:32:05.431Z,97184.85
2018-04-07T21:34:33.271Z,97186.61
2018-04-07T21:37:00.744Z,97192.56
2018-04-07T21:39:28.626Z,97192.56
2018-04-07T21:41:56.690Z,97188.56
2018-04-07T21:44:24.251Z,97176.70
2018-04-07T21:46:52.262Z,97183.11
2018-04-07T21:49:19.811Z,97188.21
2018-04-07T21:51:47.310Z,97179.83
2018-04-07T21:54:14.824Z,97178.01
2018-04-07T21:56:42.320Z,97175.73
2018-04-07T21:59:09.824Z,97176.09
2018-04-07T22:01:37.324Z,97179.91
2018-04-07T22:04:04.798Z,97178.88
2018-04-07T22:06:32.906Z,97169.85
2018-04-07T22:09:00.352Z,97166.13
2018-04-07T22:11:27.857Z,97165.54
2018-04-07T22:13:55.320Z,97165.49
2018-04-07T22:16:23.219Z,97167.98
2018-04-07T22:18:50.696Z,97164.78
2018-04-07T22:21:18.638Z,97160.48
2018-04-07T22:23:46.159Z,97175.06
2018-04-07T22:26:13.656Z,97162.62
2018-04-07T22:28:41.101Z,97163.37
2018-04-07T22:31:08.595Z,97161.45
2018-04-07T22:33:36.339Z,97162.84
2018-04-07T22:36:04.064Z,97157.33
2018-04-07T22:38:31.509Z,97166.64
2018-04-07T22:40:58.960Z,97151.68
2018-04-07T22:43:26.460Z,97150.55
2018-04-07T22:45:53.989Z,97153.93
2018-04-07T22:48:21.530Z,97153.61
2018-04-07T22:50:49.035Z,97155.09
2018-04-07T22:53:16.498Z,97153.27
2018-04-07T22:55:44.063Z,97157.81
2018-04-07T22:58:12.025Z,97155.91
2018-04-07T23:00:39.602Z,97154.53
2018-04-07T23:03:07.086Z,97151.52
2018-04-07T23:05:34.555Z,97153.14
2018-04-07T23:08:02.122Z,97152.59
2018-04-07T23:10:30.042Z,97151.25
2018-04-07T23:12:57.508Z,97151.09
2018-04-07T23:15:25.340Z,97146.16
2018-04-07T23:17:52.786Z,97161.42
2018-04-07T23:20:20.242Z,97152.72
2018-04-07T23:22:47.724Z,97150.30
2018-04-07T23:25:15.196Z,97142.35
2018-04-07T23:27:42.649Z,97144.91
2018-04-07T23:30:10.129Z,97140.89
2018-04-07T23:32:38.092Z,97148.35
2018-04-07T23:35:05.561Z,97145.09
2018-04-07T23:37:33.403Z,97144.17
2018-04-07T23:40:00.906Z,97144.17
2018-04-07T23:42:28.402Z,97140.75
2018-04-07T23:44:55.847Z,97142.50
2018-04-07T23:47:23.828Z,97133.88
2018-04-07T23:49:51.289Z,97131.64
2018-04-07T23:52:18.781Z,97134.52
2018-04-07T23:54:46.308Z,97132.82
2018-04-07T23:57:13.774Z,97133.06
2018-04-07T23:59:41.249Z,97126.02
